sensor_id;sensor_type;location;lat;lon;timestamp;pressure;altitude;pressure_sealevel;temperature;humidity
11643;BME280;5877;50.930;6.918;2022-12-01T00:00:00;101935.44;;;6.66;81.11
11643;BME280;5877;50.930;6.918;2022-12-01T00:04:55;101938.41;;;6.71;80.83
11643;BME280;5877;50.930;6.918;2022-12-01T00:09:46;101941.31;;;6.68;80.43
11643;BME280;5877;50.930;6.918;2022-12-01T00:14:56;101899.25;;;6.45;80.78
11643;BME280;5877;50.930;6.918;2022-12-01T00:19:51;101937.59;;;6.71;80.67
11643;BME280;5877;50.930;6.918;2022-12-01T00:24:42;101936.41;;;6.65;80.20
11643;BME280;5877;50.930;6.918;2022-12-01T00:29:34;101927.75;;;6.65;80.64
11643;BME280;5877;50.930;6.918;2022-12-01T00:34:25;101910.38;;;6.47;80.75
11643;BME280;5877;50.930;6.918;2022-12-01T00:39:18;101927.75;;;6.65;79.99
11643;BME280;5877;50.930;6.918;2022-12-01T00:44:10;101872.72;;;6.24;80.14
11643;BME280;5877;50.930;6.918;2022-12-01T00:49:02;101840.88;;;6.12;80.58
11643;BME280;5877;50.930;6.918;2022-12-01T00:53:54;101936.25;;;6.67;80.58
11643;BME280;5877;50.930;6.918;2022-12-01T00:58:46;101932.16;;;6.64;80.34
11643;BME280;5877;50.930;6.918;2022-12-01T01:03:37;101910.22;;;6.49;80.00
11643;BME280;5877;50.930;6.918;2022-12-01T01:08:29;101924.28;;;6.56;79.76
11643;BME280;5877;50.930;6.918;2022-12-01T01:13:20;101945.19;;;6.64;80.48
11643;BME280;5877;50.930;6.918;2022-12-01T01:18:12;101914.75;;;6.47;80.59
11643;BME280;5877;50.930;6.918;2022-12-01T01:23:04;101955.03;;;6.70;79.87
11643;BME280;5877;50.930;6.918;2022-12-01T01:27:55;101943.09;;;6.68;79.57
11643;BME280;5877;50.930;6.918;2022-12-01T01:32:47;101902.31;;;6.41;79.47
11643;BME280;5877;50.930;6.918;2022-12-01T01:37:39;101958.84;;;6.58;80.20
11643;BME280;5877;50.930;6.918;2022-12-01T01:42:30;101954.31;;;6.60;80.37
11643;BME280;5877;50.930;6.918;2022-12-01T01:47:39;101887.31;;;6.17;80.21
11643;BME280;5877;50.930;6.918;2022-12-01T01:52:58;101960.34;;;6.61;80.46
11643;BME280;5877;50.930;6.918;2022-12-01T01:57:51;101961.16;;;6.61;80.31
11643;BME280;5877;50.930;6.918;2022-12-01T02:02:46;101956.56;;;6.55;80.97
11643;BME280;5877;50.930;6.918;2022-12-01T02:07:39;101868.72;;;5.94;80.73
11643;BME280;5877;50.930;6.918;2022-12-01T02:27:51;101901.53;;;6.23;80.54
11643;BME280;5877;50.930;6.918;2022-12-01T02:33:34;101956.69;;;6.54;80.71
11643;BME280;5877;50.930;6.918;2022-12-01T02:48:15;101951.94;;;6.49;81.85
11643;BME280;5877;50.930;6.918;2022-12-01T02:53:11;101957.22;;;6.57;81.83
11643;BME280;5877;50.930;6.918;2022-12-01T02:58:12;101860.63;;;5.97;81.11
11643;BME280;5877;50.930;6.918;2022-12-01T03:13:20;101879.75;;;6.06;81.34
11643;BME280;5877;50.930;6.918;2022-12-01T03:18:27;101854.06;;;5.93;81.33
11643;BME280;5877;50.930;6.918;2022-12-01T03:23:25;101913.47;;;6.25;80.72
11643;BME280;5877;50.930;6.918;2022-12-01T03:28:21;101950.09;;;6.41;81.19
11643;BME280;5877;50.930;6.918;2022-12-01T03:33:24;101866.44;;;5.91;81.79
11643;BME280;5877;50.930;6.918;2022-12-01T03:38:20;101953.44;;;6.34;81.84
11643;BME280;5877;50.930;6.918;2022-12-01T03:43:18;101857.38;;;5.85;81.15
11643;BME280;5877;50.930;6.918;2022-12-01T03:48:11;101942.72;;;6.37;82.12
11643;BME280;5877;50.930;6.918;2022-12-01T03:53:09;101945.19;;;6.38;82.50
11643;BME280;5877;50.930;6.918;2022-12-01T03:58:04;101957.84;;;6.33;82.13
11643;BME280;5877;50.930;6.918;2022-12-01T04:02:59;101945.78;;;6.32;82.71
11643;BME280;5877;50.930;6.918;2022-12-01T04:07:54;101953.44;;;6.34;82.96
11643;BME280;5877;50.930;6.918;2022-12-01T04:12:45;101957.47;;;6.28;83.08
11643;BME280;5877;50.930;6.918;2022-12-01T04:17:41;101959.94;;;6.30;83.04
11643;BME280;5877;50.930;6.918;2022-12-01T04:22:36;101756.09;;;5.03;83.21
11643;BME280;5877;50.930;6.918;2022-12-01T04:27:28;101880.31;;;5.82;83.58
11643;BME280;5877;50.930;6.918;2022-12-01T04:32:19;101906.63;;;6.06;83.04
11643;BME280;5877;50.930;6.918;2022-12-01T04:37:11;101949.50;;;6.30;83.52
11643;BME280;5877;50.930;6.918;2022-12-01T04:42:03;101947.56;;;6.32;83.25
11643;BME280;5877;50.930;6.918;2022-12-01T04:46:55;101949.34;;;6.31;83.02
11643;BME280;5877;50.930;6.918;2022-12-01T04:51:47;101953.38;;;6.26;82.97
11643;BME280;5877;50.930;6.918;2022-12-01T04:56:39;101953.00;;;6.21;83.52
11643;BME280;5877;50.930;6.918;2022-12-01T05:01:31;101931.72;;;6.07;82.78
11643;BME280;5877;50.930;6.918;2022-12-01T05:06:25;101956.66;;;6.28;83.16
11643;BME280;5877;50.930;6.918;2022-12-01T05:11:17;101960.09;;;6.28;82.57
11643;BME280;5877;50.930;6.918;2022-12-01T05:16:12;101949.72;;;6.18;82.51
11643;BME280;5877;50.930;6.918;2022-12-01T05:21:06;101957.56;;;6.18;82.60
11643;BME280;5877;50.930;6.918;2022-12-01T05:25:58;101955.41;;;6.14;82.48
11643;BME280;5877;50.930;6.918;2022-12-01T05:30:50;101961.44;;;6.14;82.60
11643;BME280;5877;50.930;6.918;2022-12-01T05:35:42;101955.53;;;6.12;82.29
11643;BME280;5877;50.930;6.918;2022-12-01T05:40:34;101958.16;;;6.12;82.40
11643;BME280;5877;50.930;6.918;2022-12-01T05:45:26;101930.97;;;5.97;82.76
11643;BME280;5877;50.930;6.918;2022-12-01T05:50:18;101956.50;;;6.11;82.20
11643;BME280;5877;50.930;6.918;2022-12-01T05:55:09;101874.59;;;5.61;82.43
11643;BME280;5877;50.930;6.918;2022-12-01T06:00:02;101961.22;;;6.08;81.67
11643;BME280;5877;50.930;6.918;2022-12-01T06:05:01;101859.75;;;5.43;81.61
11643;BME280;5877;50.930;6.918;2022-12-01T06:09:53;101965.91;;;6.04;80.90
11643;BME280;5877;50.930;6.918;2022-12-01T06:14:45;101962.53;;;6.12;80.96
11643;BME280;5877;50.930;6.918;2022-12-01T06:19:36;101966.56;;;6.06;80.72
11643;BME280;5877;50.930;6.918;2022-12-01T06:24:28;101932.81;;;5.87;80.88
11643;BME280;5877;50.930;6.918;2022-12-01T06:29:20;101972.16;;;6.11;80.37
11643;BME280;5877;50.930;6.918;2022-12-01T06:34:12;101972.06;;;6.03;81.07
11643;BME280;5877;50.930;6.918;2022-12-01T06:39:08;101971.03;;;5.96;81.04
11643;BME280;5877;50.930;6.918;2022-12-01T06:44:00;101977.72;;;5.99;80.18
11643;BME280;5877;50.930;6.918;2022-12-01T06:48:52;101950.97;;;5.79;80.24
11643;BME280;5877;50.930;6.918;2022-12-01T06:53:43;101939.09;;;5.67;79.94
11643;BME280;5877;50.930;6.918;2022-12-01T06:58:35;101966.59;;;5.79;80.41
11643;BME280;5877;50.930;6.918;2022-12-01T07:03:27;101985.16;;;5.94;80.67
11643;BME280;5877;50.930;6.918;2022-12-01T07:08:18;101993.53;;;5.97;80.67
11643;BME280;5877;50.930;6.918;2022-12-01T07:13:10;101997.75;;;5.98;80.86
11643;BME280;5877;50.930;6.918;2022-12-01T07:18:02;101757.50;;;4.43;80.25
11643;BME280;5877;50.930;6.918;2022-12-01T07:22:53;102007.16;;;6.09;79.75
11643;BME280;5877;50.930;6.918;2022-12-01T07:27:45;101989.78;;;6.00;79.75
11643;BME280;5877;50.930;6.918;2022-12-01T07:32:36;102012.75;;;6.14;80.28
11643;BME280;5877;50.930;6.918;2022-12-01T07:37:28;101964.47;;;5.92;79.38
11643;BME280;5877;50.930;6.918;2022-12-01T07:42:20;102009.69;;;6.18;79.74
11643;BME280;5877;50.930;6.918;2022-12-01T07:47:11;102015.44;;;6.22;80.04
11643;BME280;5877;50.930;6.918;2022-12-01T07:52:03;101929.81;;;5.82;79.69
11643;BME280;5877;50.930;6.918;2022-12-01T07:56:54;102007.69;;;6.30;79.16
11643;BME280;5877;50.930;6.918;2022-12-01T08:01:46;101977.22;;;6.13;79.01
11643;BME280;5877;50.930;6.918;2022-12-01T08:06:38;102021.16;;;6.43;79.39
11643;BME280;5877;50.930;6.918;2022-12-01T08:11:29;102024.38;;;6.37;79.32
11643;BME280;5877;50.930;6.918;2022-12-01T08:16:22;101942.25;;;5.88;79.16
11643;BME280;5877;50.930;6.918;2022-12-01T08:21:17;102033.75;;;6.48;78.92
11643;BME280;5877;50.930;6.918;2022-12-01T08:26:17;102025.13;;;6.47;79.52
11643;BME280;5877;50.930;6.918;2022-12-01T08:36:05;102020.94;;;6.37;79.30
11643;BME280;5877;50.930;6.918;2022-12-01T08:41:05;102029.66;;;6.45;79.99
11643;BME280;5877;50.930;6.918;2022-12-01T08:46:00;102057.38;;;6.64;78.67
11643;BME280;5877;50.930;6.918;2022-12-01T08:51:00;102021.53;;;6.48;78.53
11643;BME280;5877;50.930;6.918;2022-12-01T08:55:51;102046.50;;;6.69;77.94
11643;BME280;5877;50.930;6.918;2022-12-01T09:00:43;101965.97;;;6.12;78.25
11643;BME280;5877;50.930;6.918;2022-12-01T09:05:35;102050.75;;;6.70;78.25
11643;BME280;5877;50.930;6.918;2022-12-01T09:10:27;101964.47;;;6.10;78.55
11643;BME280;5877;50.930;6.918;2022-12-01T09:15:18;102035.84;;;6.44;78.79
11643;BME280;5877;50.930;6.918;2022-12-01T09:20:10;102036.81;;;6.43;78.84
11643;BME280;5877;50.930;6.918;2022-12-01T09:25:02;102037.25;;;6.39;78.84
11643;BME280;5877;50.930;6.918;2022-12-01T09:29:54;102070.72;;;6.61;79.21
11643;BME280;5877;50.930;6.918;2022-12-01T09:34:46;102070.41;;;6.64;nan
11643;BME280;5877;50.930;6.918;2022-12-01T09:39:38;102071.25;;;6.65;77.79
11643;BME280;5877;50.930;6.918;2022-12-01T09:44:43;102075.13;;;6.61;77.19
11643;BME280;5877;50.930;6.918;2022-12-01T09:50:13;102070.50;;;6.72;77.82
11643;BME280;5877;50.930;6.918;2022-12-01T09:55:17;102038.38;;;6.72;77.14
11643;BME280;5877;50.930;6.918;2022-12-01T10:00:14;102058.06;;;7.10;75.99
11643;BME280;5877;50.930;6.918;2022-12-01T10:05:12;102014.94;;;7.06;75.77
11643;BME280;5877;50.930;6.918;2022-12-01T10:10:15;102050.56;;;7.41;75.08
11643;BME280;5877;50.930;6.918;2022-12-01T10:20:20;101958.31;;;6.72;74.49
11643;BME280;5877;50.930;6.918;2022-12-01T10:30:26;102042.94;;;6.96;75.08
11643;BME280;5877;50.930;6.918;2022-12-01T10:35:20;102029.13;;;7.03;74.94
11643;BME280;5877;50.930;6.918;2022-12-01T10:40:14;101941.34;;;6.50;74.16
11643;BME280;5877;50.930;6.918;2022-12-01T10:50:07;102030.63;;;7.06;74.45
11643;BME280;5877;50.930;6.918;2022-12-01T10:55:00;102035.22;;;7.12;74.36
11643;BME280;5877;50.930;6.918;2022-12-01T11:00:27;102030.06;;;7.20;74.10
11643;BME280;5877;50.930;6.918;2022-12-01T11:05:35;101939.06;;;6.73;71.90
11643;BME280;5877;50.930;6.918;2022-12-01T11:10:31;102018.22;;;7.34;71.86
11643;BME280;5877;50.930;6.918;2022-12-01T11:15:25;102018.72;;;7.37;71.36
11643;BME280;5877;50.930;6.918;2022-12-01T11:20:37;102015.63;;;7.42;71.29
11643;BME280;5877;50.930;6.918;2022-12-01T11:25:29;102017.16;;;7.53;70.14
11643;BME280;5877;50.930;6.918;2022-12-01T11:30:25;101933.00;;;6.99;71.19
11643;BME280;5877;50.930;6.918;2022-12-01T11:35:20;102003.44;;;7.51;71.92
11643;BME280;5877;50.930;6.918;2022-12-01T11:40:35;102014.06;;;7.57;71.50
11643;BME280;5877;50.930;6.918;2022-12-01T11:45:31;102014.31;;;7.38;71.78
11643;BME280;5877;50.930;6.918;2022-12-01T11:50:26;101957.53;;;6.80;72.17
11643;BME280;5877;50.930;6.918;2022-12-01T11:55:24;101994.84;;;6.98;70.55
11643;BME280;5877;50.930;6.918;2022-12-01T12:00:28;101905.97;;;6.48;69.99
11643;BME280;5877;50.930;6.918;2022-12-01T12:05:33;102004.56;;;7.14;68.51
11643;BME280;5877;50.930;6.918;2022-12-01T12:10:51;102001.59;;;7.09;66.08
11643;BME280;5877;50.930;6.918;2022-12-01T12:31:43;101994.50;;;7.27;63.43
11643;BME280;5877;50.930;6.918;2022-12-01T12:37:18;101967.59;;;7.01;64.10
11643;BME280;5877;50.930;6.918;2022-12-01T12:42:54;101936.72;;;6.88;64.02
11643;BME280;5877;50.930;6.918;2022-12-01T12:53:20;101931.28;;;6.81;65.36
11643;BME280;5877;50.930;6.918;2022-12-01T12:58:26;101967.44;;;7.02;65.13
11643;BME280;5877;50.930;6.918;2022-12-01T13:08:20;101931.94;;;6.58;65.21
11643;BME280;5877;50.930;6.918;2022-12-01T13:13:23;101967.75;;;6.73;66.32
11643;BME280;5877;50.930;6.918;2022-12-01T13:18:26;101966.63;;;6.76;66.29
11643;BME280;5877;50.930;6.918;2022-12-01T13:23:23;101862.47;;;6.05;66.54
11643;BME280;5877;50.930;6.918;2022-12-01T13:28:20;101873.53;;;6.25;65.46
11643;BME280;5877;50.930;6.918;2022-12-01T13:33:14;101949.84;;;6.78;63.27
11643;BME280;5877;50.930;6.918;2022-12-01T13:38:26;101943.06;;;6.86;63.92
11643;BME280;5877;50.930;6.918;2022-12-01T13:43:20;101954.16;;;6.88;64.53
11643;BME280;5877;50.930;6.918;2022-12-01T13:53:37;101768.16;;;5.66;64.94
11643;BME280;5877;50.930;6.918;2022-12-01T14:03:32;101943.50;;;6.81;64.94
11643;BME280;5877;50.930;6.918;2022-12-01T14:08:29;101918.03;;;6.75;64.55
11643;BME280;5877;50.930;6.918;2022-12-01T14:13:22;101828.03;;;6.19;64.68
11643;BME280;5877;50.930;6.918;2022-12-01T14:23:15;101943.56;;;6.89;63.31
11643;BME280;5877;50.930;6.918;2022-12-01T14:28:15;101951.91;;;6.93;63.94
11643;BME280;5877;50.930;6.918;2022-12-01T14:38:31;101880.34;;;6.43;64.91
11643;BME280;5877;50.930;6.918;2022-12-01T14:43:24;101876.19;;;6.33;64.40
11643;BME280;5877;50.930;6.918;2022-12-01T14:48:43;101937.63;;;6.53;64.28
11643;BME280;5877;50.930;6.918;2022-12-01T14:53:39;101933.69;;;6.49;65.19
11643;BME280;5877;50.930;6.918;2022-12-01T14:58:34;101946.00;;;6.39;65.92
11643;BME280;5877;50.930;6.918;2022-12-01T15:03:31;101954.47;;;6.41;66.21
11643;BME280;5877;50.930;6.918;2022-12-01T15:08:29;101923.38;;;6.22;66.29
11643;BME280;5877;50.930;6.918;2022-12-01T15:13:53;101877.53;;;5.93;66.26
11643;BME280;5877;50.930;6.918;2022-12-01T15:18:44;101949.97;;;6.25;66.89
11643;BME280;5877;50.930;6.918;2022-12-01T15:23:51;101897.41;;;5.94;67.42
11643;BME280;5877;50.930;6.918;2022-12-01T15:28:43;101892.09;;;5.86;67.29
11643;BME280;5877;50.930;6.918;2022-12-01T15:33:35;101942.22;;;6.15;67.19
11643;BME280;5877;50.930;6.918;2022-12-01T15:38:31;101912.28;;;6.02;64.01
11643;BME280;5877;50.930;6.918;2022-12-01T15:43:31;101961.34;;;6.06;64.94
11643;BME280;5877;50.930;6.918;2022-12-01T15:48:35;101934.22;;;5.81;64.42
11643;BME280;5877;50.930;6.918;2022-12-01T15:53:29;101963.13;;;6.06;64.29
11643;BME280;5877;50.930;6.918;2022-12-01T15:58:26;101964.19;;;5.95;63.40
11643;BME280;5877;50.930;6.918;2022-12-01T16:03:20;101974.22;;;5.90;63.93
11643;BME280;5877;50.930;6.918;2022-12-01T16:13:37;101820.16;;;4.77;64.37
11643;BME280;5877;50.930;6.918;2022-12-01T16:18:32;101994.50;;;5.86;64.96
11643;BME280;5877;50.930;6.918;2022-12-01T16:23:25;101940.81;;;5.58;64.96
11643;BME280;5877;50.930;6.918;2022-12-01T16:28:31;101894.78;;;5.31;65.33
11643;BME280;5877;50.930;6.918;2022-12-01T16:33:27;101977.25;;;5.85;65.39
11643;BME280;5877;50.930;6.918;2022-12-01T16:38:20;101980.78;;;5.94;65.44
11643;BME280;5877;50.930;6.918;2022-12-01T16:43:14;101962.19;;;5.79;65.60
11643;BME280;5877;50.930;6.918;2022-12-01T16:48:06;101861.38;;;5.27;66.27
11643;BME280;5877;50.930;6.918;2022-12-01T16:53:00;101915.50;;;5.68;65.74
11643;BME280;5877;50.930;6.918;2022-12-01T16:57:51;101949.81;;;5.91;65.46
11643;BME280;5877;50.930;6.918;2022-12-01T17:02:43;101957.03;;;5.97;65.57
11643;BME280;5877;50.930;6.918;2022-12-01T17:07:34;101927.94;;;5.74;66.52
11643;BME280;5877;50.930;6.918;2022-12-01T17:12:26;101949.50;;;5.94;67.01
11643;BME280;5877;50.930;6.918;2022-12-01T17:17:18;101957.63;;;5.91;67.07
11643;BME280;5877;50.930;6.918;2022-12-01T17:22:09;101962.97;;;5.90;67.85
11643;BME280;5877;50.930;6.918;2022-12-01T17:27:01;101966.53;;;5.88;68.49
11643;BME280;5877;50.930;6.918;2022-12-01T17:31:52;101962.16;;;5.89;68.09
11643;BME280;5877;50.930;6.918;2022-12-01T17:36:44;101791.66;;;4.85;67.92
11643;BME280;5877;50.930;6.918;2022-12-01T17:41:36;101922.66;;;5.66;68.27
11643;BME280;5877;50.930;6.918;2022-12-01T17:46:27;101915.56;;;5.59;68.33
11643;BME280;5877;50.930;6.918;2022-12-01T17:51:20;101899.28;;;5.57;68.57
11643;BME280;5877;50.930;6.918;2022-12-01T17:56:14;101971.94;;;6.05;68.84
11643;BME280;5877;50.930;6.918;2022-12-01T18:01:12;101971.84;;;6.14;68.82
11643;BME280;5877;50.930;6.918;2022-12-01T18:06:05;101963.00;;;6.07;68.10
11643;BME280;5877;50.930;6.918;2022-12-01T18:11:01;101933.75;;;5.86;67.55
11643;BME280;5877;50.930;6.918;2022-12-01T18:15:53;101792.72;;;4.92;67.94
11643;BME280;5877;50.930;6.918;2022-12-01T18:20:45;101945.41;;;5.92;68.16
11643;BME280;5877;50.930;6.918;2022-12-01T18:25:38;101973.94;;;6.11;69.36
11643;BME280;5877;50.930;6.918;2022-12-01T18:30:32;101981.47;;;6.14;69.96
11643;BME280;5877;50.930;6.918;2022-12-01T18:35:25;101976.41;;;6.12;70.67
11643;BME280;5877;50.930;6.918;2022-12-01T18:40:22;101979.59;;;6.06;70.22
11643;BME280;5877;50.930;6.918;2022-12-01T18:45:14;101978.94;;;6.04;71.07
11643;BME280;5877;50.930;6.918;2022-12-01T18:50:11;101916.94;;;5.63;71.21
11643;BME280;5877;50.930;6.918;2022-12-01T18:55:03;101929.94;;;5.63;69.69
11643;BME280;5877;50.930;6.918;2022-12-01T18:59:55;101977.50;;;5.92;69.72
11643;BME280;5877;50.930;6.918;2022-12-01T19:04:46;101972.69;;;5.87;69.80
11643;BME280;5877;50.930;6.918;2022-12-01T19:09:41;101919.06;;;5.49;69.09
11643;BME280;5877;50.930;6.918;2022-12-01T19:14:33;101753.16;;;4.34;68.01
11643;BME280;5877;50.930;6.918;2022-12-01T19:19:25;101877.97;;;4.98;68.53
11643;BME280;5877;50.930;6.918;2022-12-01T19:24:17;101965.94;;;5.49;69.13
11643;BME280;5877;50.930;6.918;2022-12-01T19:29:08;101965.97;;;5.40;68.46
11643;BME280;5877;50.930;6.918;2022-12-01T19:34:00;101943.66;;;5.10;68.95
11643;BME280;5877;50.930;6.918;2022-12-01T19:38:56;101963.47;;;5.20;69.68
11643;BME280;5877;50.930;6.918;2022-12-01T19:43:52;101927.06;;;4.83;69.85
11643;BME280;5877;50.930;6.918;2022-12-01T19:48:44;101968.19;;;5.07;68.66
11643;BME280;5877;50.930;6.918;2022-12-01T19:53:36;101895.53;;;4.49;69.23
11643;BME280;5877;50.930;6.918;2022-12-01T19:58:27;101919.97;;;4.66;68.50
11643;BME280;5877;50.930;6.918;2022-12-01T20:03:19;101772.31;;;3.76;68.00
11643;BME280;5877;50.930;6.918;2022-12-01T20:08:11;101972.75;;;4.96;68.43
11643;BME280;5877;50.930;6.918;2022-12-01T20:13:04;101957.16;;;4.86;67.47
11643;BME280;5877;50.930;6.918;2022-12-01T20:17:55;101967.84;;;4.83;67.77
11643;BME280;5877;50.930;6.918;2022-12-01T20:22:49;101882.97;;;4.26;67.91
11643;BME280;5877;50.930;6.918;2022-12-01T20:27:41;101968.94;;;4.80;68.38
11643;BME280;5877;50.930;6.918;2022-12-01T20:32:32;101923.72;;;4.44;67.82
11643;BME280;5877;50.930;6.918;2022-12-01T20:37:24;101947.22;;;4.62;68.70
11643;BME280;5877;50.930;6.918;2022-12-01T20:42:16;101970.34;;;4.75;68.47
11643;BME280;5877;50.930;6.918;2022-12-01T20:47:09;101970.34;;;4.75;68.38
11643;BME280;5877;50.930;6.918;2022-12-01T20:52:01;101909.91;;;4.34;68.35
11643;BME280;5877;50.930;6.918;2022-12-01T20:56:52;101909.78;;;4.36;68.05
11643;BME280;5877;50.930;6.918;2022-12-01T21:01:44;101960.75;;;4.66;68.13
11643;BME280;5877;50.930;6.918;2022-12-01T21:06:36;101920.72;;;4.30;67.86
11643;BME280;5877;50.930;6.918;2022-12-01T21:11:32;101961.59;;;4.56;69.13
11643;BME280;5877;50.930;6.918;2022-12-01T21:16:44;101965.97;;;4.56;69.36
11643;BME280;5877;50.930;6.918;2022-12-01T21:21:39;101893.25;;;4.08;69.34
11643;BME280;5877;50.930;6.918;2022-12-01T21:26:31;101927.97;;;4.36;68.60
11643;BME280;5877;50.930;6.918;2022-12-01T21:31:24;101954.06;;;4.63;68.55
11643;BME280;5877;50.930;6.918;2022-12-01T21:36:21;101959.81;;;4.57;69.53
11643;BME280;5877;50.930;6.918;2022-12-01T21:41:27;101963.38;;;4.56;68.85
11643;BME280;5877;50.930;6.918;2022-12-01T21:46:19;101927.56;;;4.40;69.35
11643;BME280;5877;50.930;6.918;2022-12-01T21:51:19;101952.56;;;4.51;68.73
11643;BME280;5877;50.930;6.918;2022-12-01T22:01:36;101915.25;;;4.42;68.98
11643;BME280;5877;50.930;6.918;2022-12-01T22:06:37;101943.53;;;4.65;69.31
11643;BME280;5877;50.930;6.918;2022-12-01T22:11:29;101924.41;;;4.46;68.75
11643;BME280;5877;50.930;6.918;2022-12-01T22:16:32;101933.41;;;4.52;69.28
11643;BME280;5877;50.930;6.918;2022-12-01T22:26:21;101923.16;;;4.60;68.47
11643;BME280;5877;50.930;6.918;2022-12-01T22:31:14;101814.78;;;3.95;68.97
11643;BME280;5877;50.930;6.918;2022-12-01T22:36:21;101813.97;;;3.94;69.38
11643;BME280;5877;50.930;6.918;2022-12-01T22:41:15;101867.38;;;4.26;69.77
11643;BME280;5877;50.930;6.918;2022-12-01T22:46:33;101859.16;;;4.30;68.97
11643;BME280;5877;50.930;6.918;2022-12-01T22:57:00;101899.47;;;4.53;69.35
11643;BME280;5877;50.930;6.918;2022-12-01T23:01:54;101891.81;;;4.52;70.52
11643;BME280;5877;50.930;6.918;2022-12-01T23:06:53;101890.19;;;4.51;69.95
11643;BME280;5877;50.930;6.918;2022-12-01T23:11:51;101842.47;;;4.33;69.97
11643;BME280;5877;50.930;6.918;2022-12-01T23:16:45;101901.91;;;4.65;69.74
11643;BME280;5877;50.930;6.918;2022-12-01T23:21:37;101703.91;;;3.29;69.47
11643;BME280;5877;50.930;6.918;2022-12-01T23:26:28;101870.22;;;4.42;70.24
11643;BME280;5877;50.930;6.918;2022-12-01T23:31:20;101817.41;;;3.85;70.31
11643;BME280;5877;50.930;6.918;2022-12-01T23:36:20;101896.09;;;4.34;70.63
11643;BME280;5877;50.930;6.918;2022-12-01T23:46:23;101875.03;;;4.37;69.76
11643;BME280;5877;50.930;6.918;2022-12-01T23:51:19;101819.56;;;4.09;70.00
11643;BME280;5877;50.930;6.918;2022-12-01T23:56:18;101874.34;;;4.35;70.33
